Terminal Aerodrome Forecast
Issued by NWS

Home | Current Version | Previous Version | Text Only | Print | Product List | Glossary On
Versions: 1 2 3 4 5 6 7 8 9 10 11 12 13 14 15 16 17 18 19 20 21 22 23 24 25 26 27 28 29 30
000
FTUS44 KJAN 271120
TAFPIB
TAF
KPIB 271120Z 2712/2812 32003KT P6SM OVC012
     FM271500 15003KT P6SM SCT012 BKN025
     FM271800 21005KT P6SM VCSH BKN035
     FM272000 25007KT 6SM TSRA BKN050CB
     FM272300 24004KT P6SM -SHRA SCT050 BKN120
     FM280100 00000KT P6SM BKN200=

USA.gov is the U.S. government's official web portal to all federal, state and local government web resources and services.